createdAt,value
2022-08-02T00:00:56.183Z,83.62
2022-08-02T00:01:56.263Z,83.52
2022-08-02T00:02:56.149Z,83.42
2022-08-02T00:03:56.161Z,83.72
2022-08-02T00:04:56.156Z,83.96
2022-08-02T00:05:56.126Z,83.76
2022-08-02T00:06:56.120Z,83.66
2022-08-02T00:07:56.113Z,84.06
2022-08-02T00:08:56.079Z,84.47
2022-08-02T00:09:56.110Z,84.17
2022-08-02T00:10:56.070Z,84.17
2022-08-02T00:11:56.052Z,83.86
2022-08-02T00:12:56.051Z,83.66
2022-08-02T00:13:56.021Z,83.66
2022-08-02T00:14:56.034Z,83.86
2022-08-02T00:15:56.033Z,84.00
2022-08-02T00:16:56.005Z,84.41
2022-08-02T00:17:55.979Z,84.81
2022-08-02T00:18:55.983Z,84.71
2022-08-02T00:19:56.002Z,84.81
2022-08-02T00:20:55.973Z,84.51
2022-08-02T00:21:55.954Z,84.51
2022-08-02T00:22:56.078Z,84.11
2022-08-02T00:24:27.497Z,83.60
2022-08-02T00:24:56.909Z,83.40
2022-08-02T00:25:56.103Z,83.50
2022-08-02T00:26:55.895Z,83.80
2022-08-02T00:27:55.915Z,84.31
2022-08-02T00:28:55.875Z,84.20
2022-08-02T00:29:55.875Z,84.20
2022-08-02T00:30:55.888Z,84.11
2022-08-02T00:31:55.883Z,84.11
2022-08-02T00:32:55.823Z,84.04
2022-08-02T00:34:26.571Z,84.45
2022-08-02T00:34:56.796Z,84.45
2022-08-02T00:35:55.839Z,84.95
2022-08-02T00:36:55.785Z,84.45
2022-08-02T00:37:55.767Z,83.94
2022-08-02T00:38:55.758Z,84.14
2022-08-02T00:39:55.749Z,84.14
2022-08-02T00:40:58.154Z,84.25
2022-08-02T00:41:55.758Z,84.34
2022-08-02T00:42:55.739Z,84.34
2022-08-02T00:43:55.710Z,84.25
2022-08-02T00:44:55.689Z,84.14
2022-08-02T00:46:02.164Z,83.94
2022-08-02T00:46:56.668Z,83.74
2022-08-02T00:47:55.699Z,83.94
2022-08-02T00:48:55.708Z,84.19
2022-08-02T00:49:55.637Z,84.59
2022-08-02T00:50:55.641Z,84.69
2022-08-02T00:51:55.621Z,84.48
2022-08-02T00:52:55.603Z,84.48
2022-08-02T00:53:55.628Z,84.48
2022-08-02T00:54:55.592Z,84.59
2022-08-02T00:55:55.589Z,84.69
2022-08-02T00:56:55.580Z,84.99
2022-08-02T00:57:55.553Z,85.19
2022-08-02T00:58:55.565Z,84.59
2022-08-02T00:59:55.572Z,84.79
2022-08-02T01:00:55.526Z,84.99
2022-08-02T01:01:57.660Z,85.30
2022-08-02T01:02:55.503Z,85.50
2022-08-02T01:03:55.533Z,85.70
2022-08-02T01:04:55.483Z,85.70
2022-08-02T01:06:10.138Z,85.70
2022-08-02T01:06:56.516Z,85.30
2022-08-02T01:07:55.446Z,85.10
2022-08-02T01:08:55.454Z,84.69
2022-08-02T01:09:55.424Z,84.69
2022-08-02T01:10:55.446Z,84.79
2022-08-02T01:11:55.421Z,85.19
2022-08-02T01:12:55.410Z,85.30
2022-08-02T01:13:55.375Z,84.99
2022-08-02T01:14:55.377Z,85.30
2022-08-02T01:15:55.391Z,85.10
2022-08-02T01:16:55.376Z,85.30
2022-08-02T01:17:55.341Z,85.50
2022-08-02T01:18:55.337Z,85.19
2022-08-02T01:19:55.317Z,85.10
2022-08-02T01:20:55.319Z,84.89
2022-08-02T01:21:55.396Z,84.79
2022-08-02T01:23:03.035Z,85.19
2022-08-02T01:23:56.275Z,85.13
2022-08-02T01:24:55.269Z,84.99
2022-08-02T01:25:55.253Z,85.54
2022-08-02T01:26:55.270Z,85.84
2022-08-02T01:27:55.239Z,86.05
2022-08-02T01:28:55.220Z,86.00
2022-08-02T01:29:55.218Z,85.74
2022-08-02T01:30:55.210Z,85.84
2022-08-02T01:31:55.210Z,85.74
2022-08-02T01:32:55.182Z,85.44
2022-08-02T01:33:55.204Z,85.54
2022-08-02T01:34:55.210Z,85.33
2022-08-02T01:35:55.156Z,85.44
2022-08-02T01:36:55.174Z,85.84
2022-08-02T01:37:55.135Z,86.15
2022-08-02T01:38:55.120Z,86.15
2022-08-02T01:39:55.118Z,85.94
2022-08-02T01:40:55.104Z,85.74
2022-08-02T01:41:58.834Z,85.94
2022-08-02T01:42:55.123Z,86.35
2022-08-02T01:43:55.064Z,85.74
2022-08-02T01:44:55.057Z,85.54
2022-08-02T01:45:55.035Z,85.64
2022-08-02T01:46:55.026Z,85.74
2022-08-02T01:47:55.049Z,85.84
2022-08-02T01:48:55.022Z,85.84
2022-08-02T01:49:54.993Z,86.05
2022-08-02T01:50:54.984Z,86.05
2022-08-02T01:51:54.985Z,86.45
2022-08-02T01:52:54.983Z,86.55
2022-08-02T01:53:54.955Z,86.55
2022-08-02T01:54:54.937Z,86.45
2022-08-02T01:55:57.586Z,86.71
2022-08-02T01:56:54.917Z,87.16
2022-08-02T01:57:54.974Z,86.96
2022-08-02T01:58:54.907Z,86.91
2022-08-02T01:59:54.899Z,86.91
2022-08-02T02:00:54.891Z,86.61
2022-08-02T02:01:54.968Z,86.35
2022-08-02T02:02:54.877Z,86.05
2022-08-02T02:03:54.851Z,85.94
2022-08-02T02:04:54.830Z,85.64
2022-08-02T02:05:54.827Z,86.05
2022-08-02T02:06:54.828Z,85.33
2022-08-02T02:07:54.809Z,85.24
2022-08-02T02:08:54.791Z,85.03
2022-08-02T02:09:54.813Z,84.93
2022-08-02T02:10:54.786Z,85.13
2022-08-02T02:12:13.876Z,85.13
2022-08-02T02:12:55.749Z,85.13
2022-08-02T02:13:54.749Z,85.13
2022-08-02T02:14:54.782Z,84.93
2022-08-02T02:15:54.723Z,85.03
2022-08-02T02:16:54.714Z,85.13
2022-08-02T02:18:13.172Z,85.03
2022-08-02T02:18:55.703Z,84.83
2022-08-02T02:19:54.666Z,85.07
2022-08-02T02:20:54.693Z,84.97
2022-08-02T02:21:54.654Z,84.87
2022-08-02T02:22:54.643Z,85.07
2022-08-02T02:23:54.646Z,84.97
2022-08-02T02:24:54.624Z,84.87
2022-08-02T02:25:55.653Z,84.87
2022-08-02T02:26:54.641Z,85.17
2022-08-02T02:27:54.584Z,84.97
2022-08-02T02:28:54.584Z,85.07
2022-08-02T02:29:54.585Z,84.87
2022-08-02T02:30:54.546Z,84.87
2022-08-02T02:31:54.562Z,84.77
2022-08-02T02:32:54.548Z,84.67
2022-08-02T02:33:54.516Z,84.67
2022-08-02T02:34:54.514Z,84.87
2022-08-02T02:35:54.509Z,84.87
2022-08-02T02:36:54.486Z,84.97
2022-08-02T02:37:54.488Z,84.70
2022-08-02T02:38:54.487Z,85.01
2022-08-02T02:39:54.469Z,85.01
2022-08-02T02:40:54.439Z,84.91
2022-08-02T02:41:54.458Z,84.91
2022-08-02T02:42:54.419Z,85.11
2022-08-02T02:43:54.459Z,85.31
2022-08-02T02:44:54.409Z,85.52
2022-08-02T02:45:54.402Z,85.01
2022-08-02T02:46:54.391Z,84.91
2022-08-02T02:47:54.371Z,85.01
2022-08-02T02:48:54.531Z,85.01
2022-08-02T02:49:54.362Z,84.81
2022-08-02T02:50:54.342Z,84.91
2022-08-02T02:51:54.354Z,85.21
2022-08-02T02:52:54.323Z,85.01
2022-08-02T02:54:30.314Z,85.42
2022-08-02T02:54:55.321Z,85.31
2022-08-02T02:56:01.571Z,85.21
2022-08-02T02:56:55.273Z,85.01
2022-08-02T02:57:54.264Z,84.95
2022-08-02T02:58:54.265Z,85.15
2022-08-02T02:59:54.268Z,85.25
2022-08-02T03:00:54.313Z,85.56
2022-08-02T03:01:56.658Z,85.86
2022-08-02T03:02:54.224Z,85.56
2022-08-02T03:03:54.207Z,85.15
2022-08-02T03:04:57.125Z,84.95
2022-08-02T03:05:54.187Z,85.15
2022-08-02T03:06:54.184Z,85.15
2022-08-02T03:07:54.165Z,85.15
2022-08-02T03:08:54.158Z,85.36
2022-08-02T03:09:55.072Z,85.25
2022-08-02T03:10:54.133Z,85.36
2022-08-02T03:11:54.118Z,86.07
2022-08-02T03:12:54.216Z,86.16
2022-08-02T03:13:54.109Z,86.16
2022-08-02T03:14:54.097Z,85.96
2022-08-02T03:15:54.086Z,85.96
2022-08-02T03:16:54.096Z,85.56
2022-08-02T03:17:54.075Z,85.46
2022-08-02T03:18:54.037Z,85.05
2022-08-02T03:19:54.028Z,85.05
2022-08-02T03:20:54.020Z,85.25
2022-08-02T03:21:57.147Z,85.25
2022-08-02T03:22:54.002Z,85.15
2022-08-02T03:23:53.989Z,85.15
2022-08-02T03:24:53.988Z,85.15
2022-08-02T03:25:53.969Z,85.46
2022-08-02T03:26:53.970Z,85.56
2022-08-02T03:27:53.965Z,85.46
2022-08-02T03:28:53.935Z,85.46
2022-08-02T03:29:53.945Z,85.39
2022-08-02T03:30:53.910Z,85.19
2022-08-02T03:31:53.918Z,85.09
2022-08-02T03:32:53.891Z,85.19
2022-08-02T03:33:53.891Z,85.60
2022-08-02T03:34:53.872Z,85.70
2022-08-02T03:35:53.863Z,86.10
2022-08-02T03:36:53.851Z,86.00
2022-08-02T03:37:53.832Z,85.70
2022-08-02T03:38:53.824Z,85.50
2022-08-02T03:39:53.843Z,85.39
2022-08-02T03:40:53.808Z,85.50
2022-08-02T03:41:53.793Z,85.60
2022-08-02T03:42:53.787Z,85.50
2022-08-02T03:43:53.769Z,85.70
2022-08-02T03:44:53.772Z,85.70
2022-08-02T03:45:53.797Z,86.21
2022-08-02T03:46:53.736Z,86.00
2022-08-02T03:47:53.734Z,85.60
2022-08-02T03:48:54.804Z,85.70
2022-08-02T03:49:53.707Z,85.80
2022-08-02T03:50:53.697Z,85.90
2022-08-02T03:51:53.675Z,86.00
2022-08-02T03:52:53.679Z,86.00
2022-08-02T03:53:53.688Z,85.90
2022-08-02T03:54:53.645Z,86.10
2022-08-02T03:55:55.820Z,86.21
2022-08-02T03:56:53.630Z,86.41
2022-08-02T03:57:53.630Z,86.51
2022-08-02T03:58:53.598Z,86.51
2022-08-02T03:59:53.619Z,86.71
2022-08-02T04:00:53.702Z,87.12
2022-08-02T04:01:53.605Z,87.32
2022-08-02T04:02:53.570Z,87.02
2022-08-02T04:03:53.571Z,86.71
2022-08-02T04:04:53.581Z,86.82
2022-08-02T04:06:03.833Z,86.91
2022-08-02T04:06:54.521Z,86.82
2022-08-02T04:08:31.783Z,86.82
2022-08-02T04:08:54.509Z,86.61
2022-08-02T04:09:53.503Z,86.71
2022-08-02T04:10:54.043Z,87.02
2022-08-02T04:11:53.471Z,87.52
2022-08-02T04:12:53.464Z,87.89
2022-08-02T04:13:54.122Z,88.03
2022-08-02T04:14:53.433Z,88.20
2022-08-02T04:15:53.460Z,88.20
2022-08-02T04:16:53.415Z,88.29
2022-08-02T04:17:53.401Z,88.20
2022-08-02T04:18:53.407Z,88.20
2022-08-02T04:19:53.394Z,88.20
2022-08-02T04:20:53.403Z,88.20
2022-08-02T04:21:53.365Z,87.89
2022-08-02T04:22:53.374Z,87.89
2022-08-02T04:23:53.349Z,87.89
2022-08-02T04:24:53.350Z,87.89
2022-08-02T04:25:53.330Z,87.69
2022-08-02T04:26:53.328Z,87.79
2022-08-02T04:28:16.767Z,87.99
2022-08-02T04:28:54.284Z,88.29
2022-08-02T04:29:53.329Z,88.60
2022-08-02T04:30:53.281Z,88.70
2022-08-02T04:31:53.295Z,88.80
2022-08-02T04:32:53.248Z,88.80
2022-08-02T04:33:53.240Z,88.90
2022-08-02T04:35:59.283Z,89.06
2022-08-02T04:36:54.218Z,89.06
2022-08-02T04:38:09.963Z,88.96
2022-08-02T04:38:54.189Z,88.76
2022-08-02T04:39:53.216Z,89.17
2022-08-02T04:40:53.171Z,89.17
2022-08-02T04:41:57.377Z,89.26
2022-08-02T04:42:53.140Z,89.37
2022-08-02T04:43:53.146Z,88.86
2022-08-02T04:44:53.121Z,88.25
2022-08-02T04:45:53.158Z,87.95
2022-08-02T04:46:53.119Z,88.25
2022-08-02T04:48:02.342Z,87.99
2022-08-02T04:48:54.103Z,87.99
2022-08-02T04:49:53.062Z,87.69
2022-08-02T04:50:53.053Z,87.59
2022-08-02T04:51:53.071Z,88.09
2022-08-02T04:52:53.035Z,88.54
2022-08-02T04:53:53.024Z,88.75
2022-08-02T04:54:54.043Z,89.04
2022-08-02T04:55:53.001Z,89.04
2022-08-02T04:56:53.012Z,88.54
2022-08-02T04:57:53.360Z,88.13
2022-08-02T04:58:52.967Z,88.54
2022-08-02T04:59:54.692Z,88.23
2022-08-02T05:00:53.042Z,89.04
2022-08-02T05:01:52.967Z,89.96
2022-08-02T05:02:52.930Z,90.57
2022-08-02T05:03:52.908Z,90.47
2022-08-02T05:04:52.908Z,89.65
2022-08-02T05:05:52.885Z,89.96
2022-08-02T05:06:52.938Z,90.57
2022-08-02T05:07:52.866Z,90.88
2022-08-02T05:08:53.757Z,91.28
2022-08-02T05:09:52.846Z,91.63
2022-08-02T05:10:52.839Z,92.03
2022-08-02T05:11:53.335Z,91.99
2022-08-02T05:12:52.808Z,91.73
2022-08-02T05:13:58.544Z,91.63
2022-08-02T05:14:53.817Z,91.28
2022-08-02T05:15:52.789Z,90.88
2022-08-02T05:16:52.779Z,90.97
2022-08-02T05:17:52.768Z,90.47
2022-08-02T05:18:52.749Z,90.67
2022-08-02T05:19:52.767Z,90.67
2022-08-02T05:20:57.807Z,90.36
2022-08-02T05:21:53.718Z,90.47
2022-08-02T05:22:52.785Z,90.26
2022-08-02T05:23:52.701Z,90.88
2022-08-02T05:24:52.681Z,90.47
2022-08-02T05:25:52.690Z,90.83
2022-08-02T05:26:52.662Z,90.42
2022-08-02T05:27:52.672Z,90.83
2022-08-02T05:28:52.639Z,90.83
2022-08-02T05:29:53.981Z,90.62
2022-08-02T05:30:52.613Z,91.34
2022-08-02T05:31:52.637Z,90.62
2022-08-02T05:32:52.633Z,90.62
2022-08-02T05:33:52.584Z,90.62
2022-08-02T05:34:52.584Z,90.42
2022-08-02T05:35:52.566Z,90.32
2022-08-02T05:36:52.571Z,90.53
2022-08-02T05:37:52.553Z,90.93
2022-08-02T05:38:52.552Z,90.58
2022-08-02T05:39:55.810Z,90.18
2022-08-02T05:40:54.397Z,89.87
2022-08-02T05:41:52.501Z,89.87
2022-08-02T05:42:52.507Z,90.58
2022-08-02T05:43:52.493Z,90.58
2022-08-02T05:44:52.467Z,90.69
2022-08-02T05:45:52.466Z,90.58
2022-08-02T05:46:52.448Z,90.28
2022-08-02T05:47:52.458Z,90.08
2022-08-02T05:48:52.460Z,90.08
2022-08-02T05:49:52.447Z,90.44
2022-08-02T05:50:52.406Z,90.54
2022-08-02T05:51:52.400Z,90.95
2022-08-02T05:52:52.406Z,90.54
2022-08-02T05:53:52.388Z,90.95
2022-08-02T05:54:52.379Z,90.54
2022-08-02T05:55:52.350Z,90.24
2022-08-02T05:56:52.349Z,90.14
2022-08-02T05:57:52.350Z,90.24
2022-08-02T05:58:52.366Z,90.14
2022-08-02T05:59:52.337Z,90.14
2022-08-02T06:00:52.300Z,89.73
2022-08-02T06:01:52.356Z,89.83
2022-08-02T06:02:52.280Z,89.53
2022-08-02T06:03:52.322Z,89.69
2022-08-02T06:04:53.000Z,89.28
2022-08-02T06:05:52.244Z,89.28
2022-08-02T06:06:52.231Z,89.18
2022-08-02T06:07:52.221Z,89.08
2022-08-02T06:08:52.210Z,89.48
2022-08-02T06:09:52.202Z,89.59
2022-08-02T06:10:52.219Z,89.48
2022-08-02T06:12:01.718Z,89.79
2022-08-02T06:12:53.162Z,89.89
2022-08-02T06:13:52.175Z,89.79
2022-08-02T06:14:54.520Z,89.18
2022-08-02T06:15:53.400Z,88.98
2022-08-02T06:16:52.113Z,89.08
2022-08-02T06:17:52.105Z,89.18
2022-08-02T06:18:52.106Z,89.28
2022-08-02T06:19:52.767Z,89.14
2022-08-02T06:20:52.076Z,89.24
2022-08-02T06:22:35.522Z,89.04
2022-08-02T06:22:53.060Z,88.84
2022-08-02T06:23:57.910Z,88.64
2022-08-02T06:24:53.030Z,88.64
2022-08-02T06:25:52.045Z,88.74
2022-08-02T06:26:52.008Z,88.74
2022-08-02T06:27:52.035Z,89.04
2022-08-02T06:28:51.996Z,90.16
2022-08-02T06:29:51.999Z,90.72
2022-08-02T06:30:51.965Z,90.11
2022-08-02T06:31:51.999Z,89.40
2022-08-02T06:32:51.951Z,89.30
2022-08-02T06:33:52.068Z,88.70
2022-08-02T06:34:51.931Z,88.49
2022-08-02T06:35:51.923Z,88.29
2022-08-02T06:36:51.908Z,88.29
2022-08-02T06:37:55.593Z,88.19
2022-08-02T06:38:52.929Z,88.39
2022-08-02T06:39:51.881Z,88.29
2022-08-02T06:40:51.874Z,88.29
2022-08-02T06:41:51.859Z,88.29
2022-08-02T06:42:51.848Z,88.09
2022-08-02T06:43:51.842Z,87.58
2022-08-02T06:44:57.044Z,85.86
2022-08-02T06:45:52.812Z,86.27
2022-08-02T06:47:11.112Z,86.47
2022-08-02T06:47:52.810Z,86.47
2022-08-02T06:48:51.838Z,86.47
2022-08-02T06:49:54.195Z,86.47
2022-08-02T06:50:51.787Z,86.07
2022-08-02T06:51:51.767Z,86.07
2022-08-02T06:52:51.750Z,86.73
2022-08-02T06:53:51.724Z,87.44
2022-08-02T06:54:51.767Z,88.45
2022-08-02T06:55:51.704Z,88.15
2022-08-02T06:56:51.730Z,87.24
2022-08-02T06:57:51.683Z,87.54
2022-08-02T06:58:51.676Z,88.75
2022-08-02T06:59:51.697Z,85.31
2022-08-02T07:00:51.659Z,84.81
2022-08-02T07:01:51.675Z,85.22
2022-08-02T07:02:51.626Z,87.44
2022-08-02T07:03:51.634Z,87.84
2022-08-02T07:04:51.819Z,86.93
2022-08-02T07:05:51.607Z,86.43
2022-08-02T07:06:51.577Z,85.93
2022-08-02T07:07:51.576Z,85.22
2022-08-02T07:09:19.126Z,85.42
2022-08-02T07:09:56.311Z,85.52
2022-08-02T07:10:52.551Z,85.62
2022-08-02T07:11:51.550Z,85.62
2022-08-02T07:12:51.530Z,85.72
2022-08-02T07:13:51.509Z,87.10
2022-08-02T07:14:51.520Z,85.58
2022-08-02T07:15:51.508Z,85.31
2022-08-02T07:16:51.478Z,85.17
2022-08-02T07:17:51.468Z,85.42
2022-08-02T07:18:51.478Z,85.17
2022-08-02T07:19:51.449Z,85.38
2022-08-02T07:20:51.449Z,84.77
2022-08-02T07:21:57.744Z,85.68
2022-08-02T07:22:52.422Z,85.78
2022-08-02T07:23:51.433Z,85.88
2022-08-02T07:24:51.422Z,86.08
2022-08-02T07:26:01.958Z,85.78
2022-08-02T07:27:10.470Z,85.78
2022-08-02T07:27:52.369Z,85.08
2022-08-02T07:28:51.353Z,84.77
2022-08-02T07:29:51.345Z,83.96
2022-08-02T07:30:51.383Z,84.37
2022-08-02T07:31:51.304Z,85.78
2022-08-02T07:32:51.336Z,86.29
2022-08-02T07:33:51.295Z,84.37
2022-08-02T07:34:53.450Z,81.64
2022-08-02T07:35:51.276Z,82.45
2022-08-02T07:36:51.294Z,82.14
2022-08-02T07:37:55.600Z,80.90
2022-08-02T07:38:52.256Z,81.70
2022-08-02T07:39:51.233Z,82.01
2022-08-02T07:40:51.240Z,81.10
2022-08-02T07:41:51.225Z,81.90
2022-08-02T07:42:51.204Z,81.60
2022-08-02T07:43:51.194Z,82.10
2022-08-02T07:44:51.180Z,81.10
2022-08-02T07:45:55.859Z,80.39
2022-08-02T07:46:52.237Z,80.69
2022-08-02T07:47:51.146Z,83.32
2022-08-02T07:48:51.167Z,83.01
2022-08-02T07:49:51.128Z,81.46
2022-08-02T07:50:51.149Z,80.76
2022-08-02T07:51:51.113Z,83.28
2022-08-02T07:52:57.038Z,82.47
2022-08-02T07:54:02.469Z,81.26
2022-08-02T07:54:52.070Z,81.36
2022-08-02T07:55:51.069Z,81.05
2022-08-02T07:56:51.052Z,79.94
2022-08-02T07:57:52.079Z,80.85
2022-08-02T07:58:51.063Z,80.76
2022-08-02T07:59:51.021Z,81.46
2022-08-02T08:00:51.028Z,81.26
2022-08-02T08:01:51.010Z,81.36
2022-08-02T08:02:50.992Z,81.46
2022-08-02T08:03:51.001Z,81.36
2022-08-02T08:04:50.962Z,80.76
2022-08-02T08:05:50.997Z,81.16
2022-08-02T08:06:50.957Z,80.76
2022-08-02T08:07:50.937Z,80.45
2022-08-02T08:08:50.931Z,80.65
2022-08-02T08:09:51.154Z,80.41
2022-08-02T08:10:51.944Z,81.12
2022-08-02T08:11:50.893Z,79.41
2022-08-02T08:12:50.881Z,79.81
2022-08-02T08:13:50.866Z,80.62
2022-08-02T08:14:50.873Z,81.93
2022-08-02T08:15:52.422Z,82.33
2022-08-02T08:16:50.875Z,81.52
2022-08-02T08:17:50.835Z,80.51
2022-08-02T08:18:50.818Z,80.31
2022-08-02T08:19:52.586Z,80.31
2022-08-02T08:20:50.799Z,79.91
2022-08-02T08:21:50.823Z,79.47
2022-08-02T08:22:50.777Z,78.06
2022-08-02T08:23:50.768Z,78.96
2022-08-02T08:24:50.779Z,78.56
2022-08-02T08:25:50.739Z,78.36
2022-08-02T08:26:50.777Z,78.26
2022-08-02T08:27:50.727Z,77.92
2022-08-02T08:28:50.706Z,77.72
2022-08-02T08:29:50.700Z,77.31
2022-08-02T08:30:50.702Z,77.92
2022-08-02T08:31:50.707Z,78.72
2022-08-02T08:32:50.670Z,78.63
2022-08-02T08:33:50.653Z,79.43
2022-08-02T08:34:50.650Z,78.52
2022-08-02T08:35:50.632Z,77.62
2022-08-02T08:36:50.641Z,78.22
2022-08-02T08:37:50.680Z,78.12
2022-08-02T08:38:50.610Z,76.61
2022-08-02T08:39:56.824Z,76.71
2022-08-02T08:40:51.601Z,77.48
2022-08-02T08:41:50.677Z,76.57
2022-08-02T08:42:50.584Z,77.28
2022-08-02T08:43:53.406Z,76.67
2022-08-02T08:44:50.534Z,76.77
2022-08-02T08:45:55.555Z,76.57
2022-08-02T08:46:51.547Z,78.19
2022-08-02T08:47:50.510Z,79.80
2022-08-02T08:48:50.589Z,75.96
2022-08-02T08:49:52.306Z,76.17
2022-08-02T08:50:50.483Z,76.77
2022-08-02T08:51:50.465Z,77.08
2022-08-02T08:52:50.485Z,75.46
2022-08-02T08:53:50.447Z,76.23
2022-08-02T08:54:50.480Z,75.53
2022-08-02T08:55:50.436Z,75.83
2022-08-02T08:56:50.417Z,76.54
2022-08-02T08:57:50.416Z,76.03
2022-08-02T08:58:50.424Z,75.43
2022-08-02T08:59:50.369Z,75.13
2022-08-02T09:00:50.425Z,75.33
2022-08-02T09:01:51.275Z,74.62
2022-08-02T09:02:50.368Z,76.34
2022-08-02T09:03:50.335Z,75.73
2022-08-02T09:04:55.051Z,76.34
2022-08-02T09:05:51.314Z,77.04
2022-08-02T09:06:50.323Z,78.65
2022-08-02T09:07:50.330Z,76.54
2022-08-02T09:08:50.304Z,76.54
2022-08-02T09:09:50.334Z,78.15
2022-08-02T09:10:50.282Z,80.36
2022-08-02T09:11:50.286Z,76.64
2022-08-02T09:12:50.264Z,76.23
2022-08-02T09:13:50.219Z,77.24
2022-08-02T09:14:50.626Z,75.70
2022-08-02T09:15:50.227Z,78.61
2022-08-02T09:16:50.245Z,78.81
2022-08-02T09:17:50.180Z,75.99
2022-08-02T09:18:50.184Z,75.79
2022-08-02T09:19:50.172Z,74.18
2022-08-02T09:20:50.173Z,74.15
2022-08-02T09:21:50.192Z,74.45
2022-08-02T09:22:50.144Z,73.14
2022-08-02T09:23:50.143Z,73.00
2022-08-02T09:24:50.116Z,73.91
2022-08-02T09:25:59.151Z,72.91
2022-08-02T09:26:51.124Z,73.71
2022-08-02T09:27:50.075Z,72.41
2022-08-02T09:28:50.156Z,72.17
2022-08-02T09:30:12.497Z,72.37
2022-08-02T09:30:51.049Z,71.67
2022-08-02T09:31:50.253Z,72.27
2022-08-02T09:32:50.126Z,72.67
2022-08-02T09:33:50.054Z,70.96
2022-08-02T09:34:50.004Z,71.47
2022-08-02T09:36:06.336Z,72.57
2022-08-02T09:36:54.367Z,70.06
2022-08-02T09:37:50.020Z,71.77
2022-08-02T09:38:49.977Z,70.66
2022-08-02T09:39:49.957Z,70.63
2022-08-02T09:40:50.938Z,73.14
2022-08-02T09:41:49.956Z,72.64
2022-08-02T09:42:49.938Z,69.72
2022-08-02T09:44:03.549Z,69.62
2022-08-02T09:44:50.899Z,71.33
2022-08-02T09:45:49.913Z,70.79
2022-08-02T09:46:49.871Z,71.30
2022-08-02T09:47:49.861Z,70.73
2022-08-02T09:48:52.796Z,69.59
2022-08-02T09:49:52.341Z,69.79
2022-08-02T09:50:49.830Z,69.79
2022-08-02T09:51:49.823Z,72.00
2022-08-02T09:52:49.800Z,73.00
2022-08-02T09:53:49.801Z,70.50
2022-08-02T09:54:49.823Z,71.50
2022-08-02T09:55:49.872Z,69.29
2022-08-02T09:56:49.833Z,70.29
2022-08-02T09:57:51.104Z,72.71
2022-08-02T09:58:49.742Z,71.70
2022-08-02T09:59:49.784Z,70.46
2022-08-02T10:00:52.982Z,71.36
2022-08-02T10:01:51.487Z,70.26
2022-08-02T10:02:50.701Z,70.76
2022-08-02T10:03:49.714Z,70.66
2022-08-02T10:04:52.634Z,71.56
2022-08-02T10:05:55.635Z,71.36
2022-08-02T10:06:50.667Z,71.36
2022-08-02T10:07:49.644Z,70.46
2022-08-02T10:08:49.635Z,74.88
2022-08-02T10:09:49.634Z,69.66
2022-08-02T10:10:49.616Z,74.37
2022-08-02T10:11:49.610Z,69.85
2022-08-02T10:12:49.598Z,70.12
2022-08-02T10:13:49.732Z,69.62
2022-08-02T10:14:49.599Z,72.53
2022-08-02T10:15:50.516Z,70.03
2022-08-02T10:16:49.547Z,71.93
2022-08-02T10:17:49.533Z,73.24
2022-08-02T10:18:49.516Z,73.94
2022-08-02T10:20:02.547Z,75.54
2022-08-02T10:20:50.507Z,70.83
2022-08-02T10:21:49.497Z,68.59
2022-08-02T10:22:49.481Z,69.29
2022-08-02T10:23:49.479Z,69.35
2022-08-02T10:24:49.481Z,68.26
2022-08-02T10:25:49.479Z,68.76
2022-08-02T10:26:49.429Z,69.23
2022-08-02T10:28:04.712Z,71.33
2022-08-02T10:28:50.421Z,68.02
2022-08-02T10:29:55.044Z,66.82
2022-08-02T10:30:50.448Z,66.89
2022-08-02T10:31:49.390Z,65.19
2022-08-02T10:32:49.373Z,66.59
2022-08-02T10:33:50.351Z,67.09
2022-08-02T10:34:51.085Z,67.79
2022-08-02T10:35:49.344Z,67.39
2022-08-02T10:36:50.342Z,67.09
2022-08-02T10:37:49.314Z,66.69
2022-08-02T10:38:49.308Z,64.78
2022-08-02T10:39:50.900Z,70.69
2022-08-02T10:40:49.295Z,67.59
2022-08-02T10:41:49.273Z,67.39
2022-08-02T10:42:49.306Z,68.19
2022-08-02T10:43:49.255Z,68.69
2022-08-02T10:44:49.255Z,67.49
2022-08-02T10:45:50.858Z,67.79
2022-08-02T10:46:49.225Z,66.55
2022-08-02T10:47:49.205Z,65.66
2022-08-02T10:48:49.250Z,67.76
2022-08-02T10:49:49.249Z,66.66
2022-08-02T10:50:49.174Z,66.86
2022-08-02T10:51:49.167Z,64.92
2022-08-02T10:52:49.164Z,64.72
2022-08-02T10:53:49.135Z,65.42
2022-08-02T10:54:49.175Z,64.52
2022-08-02T10:55:49.125Z,64.52
2022-08-02T10:56:49.119Z,65.22
2022-08-02T10:57:51.675Z,64.83
2022-08-02T10:58:49.102Z,65.92
2022-08-02T10:59:49.087Z,64.79
2022-08-02T11:00:49.169Z,65.69
2022-08-02T11:01:49.059Z,63.89
2022-08-02T11:02:53.197Z,63.79
2022-08-02T11:03:49.054Z,67.59
2022-08-02T11:04:49.023Z,66.89
2022-08-02T11:05:49.043Z,65.79
2022-08-02T11:06:49.011Z,63.89
2022-08-02T11:07:49.567Z,64.39
2022-08-02T11:08:48.987Z,64.16
2022-08-02T11:09:48.981Z,65.26
2022-08-02T11:10:48.984Z,67.16
2022-08-02T11:11:54.145Z,66.49
2022-08-02T11:12:49.964Z,67.76
2022-08-02T11:13:48.939Z,67.40
2022-08-02T11:14:48.984Z,70.49
2022-08-02T11:15:48.911Z,71.39
2022-08-02T11:16:48.933Z,66.49
2022-08-02T11:17:48.892Z,67.29
2022-08-02T11:18:48.883Z,67.40
2022-08-02T11:19:48.868Z,64.89
2022-08-02T11:20:48.854Z,65.76
2022-08-02T11:21:48.865Z,64.46
2022-08-02T11:22:48.837Z,63.43
2022-08-02T11:23:48.833Z,66.70
2022-08-02T11:24:48.816Z,68.63
2022-08-02T11:26:03.722Z,62.20
2022-08-02T11:26:49.820Z,65.10
2022-08-02T11:27:48.775Z,62.70
2022-08-02T11:28:48.808Z,63.27
2022-08-02T11:29:48.768Z,65.47
2022-08-02T11:30:48.759Z,65.97
2022-08-02T11:31:48.737Z,68.99
2022-08-02T11:32:48.747Z,64.80
2022-08-02T11:33:48.707Z,66.00
2022-08-02T11:34:48.708Z,64.40
2022-08-02T11:35:48.718Z,63.50
2022-08-02T11:36:48.679Z,63.20
2022-08-02T11:37:48.694Z,65.10
2022-08-02T11:38:48.671Z,63.30
2022-08-02T11:39:48.660Z,61.87
2022-08-02T11:40:48.640Z,62.37
2022-08-02T11:41:48.621Z,61.44
2022-08-02T11:42:48.660Z,62.74
2022-08-02T11:43:48.633Z,62.01
2022-08-02T11:44:48.590Z,59.22
2022-08-02T11:45:48.628Z,64.51
2022-08-02T11:46:48.591Z,59.72
2022-08-02T11:47:48.600Z,60.09
2022-08-02T11:48:48.573Z,60.79
2022-08-02T11:49:48.553Z,59.79
2022-08-02T11:50:48.527Z,60.39
2022-08-02T11:51:53.681Z,61.39
2022-08-02T11:52:49.544Z,62.78
2022-08-02T11:53:48.504Z,59.79
2022-08-02T11:54:48.495Z,59.69
2022-08-02T11:55:48.486Z,60.29
2022-08-02T11:56:48.475Z,59.89
2022-08-02T11:58:04.318Z,65.47
2022-08-02T11:58:49.464Z,61.58
2022-08-02T11:59:48.448Z,62.98
2022-08-02T12:00:48.436Z,64.97
2022-08-02T12:01:48.417Z,63.01
2022-08-02T12:02:48.486Z,61.49
2022-08-02T12:03:48.469Z,61.29
2022-08-02T12:04:48.380Z,64.58
2022-08-02T12:06:04.892Z,63.91
2022-08-02T12:06:49.368Z,63.41
2022-08-02T12:07:48.365Z,64.71
2022-08-02T12:08:52.022Z,59.82
2022-08-02T12:09:49.353Z,60.19
2022-08-02T12:10:48.333Z,62.48
2022-08-02T12:11:48.312Z,63.08
2022-08-02T12:12:48.893Z,61.25
2022-08-02T12:13:57.325Z,58.47
2022-08-02T12:14:49.310Z,61.46
2022-08-02T12:15:48.272Z,61.76
2022-08-02T12:16:48.269Z,59.69
2022-08-02T12:17:48.263Z,60.09
2022-08-02T12:18:48.251Z,59.47
2022-08-02T12:19:48.244Z,58.27
2022-08-02T12:20:48.245Z,61.06
2022-08-02T12:21:48.216Z,61.66
2022-08-02T12:22:48.207Z,59.27
2022-08-02T12:23:59.365Z,58.57
2022-08-02T12:24:49.177Z,61.06
2022-08-02T12:25:48.165Z,61.96
2022-08-02T12:26:48.210Z,57.57
2022-08-02T12:27:48.144Z,56.87
2022-08-02T12:28:49.133Z,62.82
2022-08-02T12:29:57.636Z,61.93
2022-08-02T12:30:49.140Z,63.62
2022-08-02T12:31:57.122Z,62.26
2022-08-02T12:32:49.123Z,61.03
2022-08-02T12:33:48.084Z,66.20
2022-08-02T12:34:48.077Z,68.43
2022-08-02T12:35:48.075Z,67.73
2022-08-02T12:36:48.039Z,69.02
2022-08-02T12:37:48.070Z,69.53
2022-08-02T12:38:48.032Z,69.73
2022-08-02T12:39:48.009Z,68.43
2022-08-02T12:40:48.038Z,68.83
2022-08-02T12:41:55.043Z,69.73
2022-08-02T12:42:49.049Z,70.65
2022-08-02T12:43:47.971Z,71.95
2022-08-02T12:44:48.002Z,68.96
2022-08-02T12:45:49.035Z,69.96
2022-08-02T12:46:47.936Z,70.56
2022-08-02T12:47:47.931Z,72.55
2022-08-02T12:49:08.361Z,71.65
2022-08-02T12:49:48.951Z,71.35
2022-08-02T12:50:47.932Z,71.05
2022-08-02T12:51:56.670Z,72.45
2022-08-02T12:52:48.896Z,71.55
2022-08-02T12:53:47.887Z,72.35